Time,TemperatureF,DewpointF,PressureIn,WindDirection,WindDirectionDegrees,WindSpeedMPH,WindSpeedGustMPH,Humidity,HourlyPrecipIn,Conditions,Clouds,dailyrainin,SoftwareType,DateUTC
2013-08-15 00:05:00,63.0,60.0,29.93,WSW,258,0.0,0.0,90,0.00,,,0.00,Wunderground v.1.15,2013-08-15 07:05:00,
2013-08-15 00:15:00,62.5,59.5,29.92,WSW,258,0.0,0.0,90,0.00,,,0.00,Wunderground v.1.15,2013-08-15 07:15:00,
2013-08-15 00:25:00,62.3,59.6,29.92,WSW,258,0.0,0.0,91,0.00,,,0.00,Wunderground v.1.15,2013-08-15 07:25:00,
2013-08-15 00:35:00,62.3,59.9,29.92,WSW,258,0.0,2.0,92,0.00,,,0.00,Wunderground v.1.15,2013-08-15 07:35:00,
2013-08-15 00:45:00,62.4,60.3,29.92,WSW,238,0.0,2.0,93,0.00,,,0.00,Wunderground v.1.15,2013-08-15 07:45:00,
2013-08-15 00:55:00,62.4,60.3,29.92,WSW,238,0.0,2.0,93,0.00,,,0.00,Wunderground v.1.15,2013-08-15 07:55:00,
2013-08-15 01:05:00,62.4,60.3,29.91,WSW,238,0.0,0.0,93,0.00,,,0.00,Wunderground v.1.15,2013-08-15 08:05:00,
2013-08-15 01:15:00,62.4,60.3,29.91,WSW,238,0.0,0.0,93,0.00,,,0.00,Wunderground v.1.15,2013-08-15 08:15:00,
2013-08-15 01:25:00,62.3,60.2,29.91,WSW,238,0.0,0.0,93,0.00,,,0.00,Wunderground v.1.15,2013-08-15 08:25:00,
2013-08-15 01:35:00,62.2,60.2,29.91,WSW,238,0.0,0.0,93,0.00,,,0.00,Wunderground v.1.15,2013-08-15 08:35:00,
2013-08-15 01:45:00,62.0,60.0,29.91,WSW,238,0.0,0.0,93,0.00,,,0.00,Wunderground v.1.15,2013-08-15 08:45:00,
2013-08-15 01:55:00,62.0,60.0,29.91,WSW,238,0.0,0.0,93,0.00,,,0.00,Wunderground v.1.15,2013-08-15 08:55:00,
2013-08-15 02:05:00,62.2,60.2,29.91,WNW,289,0.0,0.0,93,0.00,,,0.00,Wunderground v.1.15,2013-08-15 09:05:00,
2013-08-15 02:15:00,62.3,60.2,29.91,SSW,204,0.0,0.0,93,0.00,,,0.00,Wunderground v.1.15,2013-08-15 09:15:00,
2013-08-15 02:20:00,62.3,60.2,29.91,SSW,204,0.0,0.0,93,0.00,,,0.00,Wunderground v.1.15,2013-08-15 09:20:00,
2013-08-15 02:25:00,62.3,60.2,29.91,SSW,204,0.0,0.0,93,0.00,,,0.00,Wunderground v.1.15,2013-08-15 09:25:00,
2013-08-15 02:35:00,62.5,60.4,29.90,SSW,204,0.0,0.0,93,0.00,,,0.00,Wunderground v.1.15,2013-08-15 09:35:00,
2013-08-15 02:45:00,62.5,60.4,29.91,SSW,204,0.0,0.0,93,0.00,,,0.00,Wunderground v.1.15,2013-08-15 09:45:00,
2013-08-15 02:55:00,62.6,60.5,29.90,SSW,204,0.0,0.0,93,0.00,,,0.00,Wunderground v.1.15,2013-08-15 09:55:00,
2013-08-15 03:05:00,62.6,60.5,29.90,SSW,204,0.0,0.0,93,0.00,,,0.00,Wunderground v.1.15,2013-08-15 10:05:00,
2013-08-15 03:15:00,62.6,60.5,29.91,SSW,204,0.0,0.0,93,0.00,,,0.00,Wunderground v.1.15,2013-08-15 10:15:00,
2013-08-15 03:25:00,62.8,60.7,29.91,SW,216,0.0,0.0,93,0.00,,,0.00,Wunderground v.1.15,2013-08-15 10:25:00,
2013-08-15 03:35:00,62.8,60.4,29.90,WSW,251,0.0,1.0,92,0.00,,,0.00,Wunderground v.1.15,2013-08-15 10:35:00,
2013-08-15 03:45:00,62.8,60.4,29.91,WSW,249,0.0,1.0,92,0.00,,,0.00,Wunderground v.1.15,2013-08-15 10:45:00,
2013-08-15 03:55:00,62.7,60.3,29.91,WSW,249,0.0,1.0,92,0.00,,,0.00,Wunderground v.1.15,2013-08-15 10:55:00,
2013-08-15 04:05:00,62.7,60.6,29.91,WSW,249,0.0,0.0,93,0.00,,,0.00,Wunderground v.1.15,2013-08-15 11:05:00,
2013-08-15 04:15:00,62.7,60.6,29.90,WSW,249,0.0,0.0,93,0.00,,,0.00,Wunderground v.1.15,2013-08-15 11:15:00,
2013-08-15 04:25:00,62.7,60.6,29.90,WSW,249,0.0,0.0,93,0.00,,,0.00,Wunderground v.1.15,2013-08-15 11:25:00,
2013-08-15 04:30:00,62.8,60.7,29.90,WSW,249,0.0,0.0,93,0.00,,,0.00,Wunderground v.1.15,2013-08-15 11:30:00,
2013-08-15 04:35:00,62.9,60.8,29.90,WSW,249,0.0,1.0,93,0.00,,,0.00,Wunderground v.1.15,2013-08-15 11:35:00,
2013-08-15 04:45:00,63.0,60.9,29.90,WSW,249,0.0,1.0,93,0.00,,,0.00,Wunderground v.1.15,2013-08-15 11:45:00,
2013-08-15 04:55:00,63.2,61.1,29.90,WSW,249,0.0,1.0,93,0.00,,,0.00,Wunderground v.1.15,2013-08-15 11:55:00,
2013-08-15 05:05:00,63.3,60.9,29.90,WSW,249,0.0,0.0,92,0.00,,,0.00,Wunderground v.1.15,2013-08-15 12:05:00,
2013-08-15 05:15:00,63.4,61.0,29.90,WSW,249,0.0,0.0,92,0.00,,,0.00,Wunderground v.1.15,2013-08-15 12:15:00,
2013-08-15 05:25:00,63.2,60.8,29.91,West,264,0.0,0.0,92,0.00,,,0.00,Wunderground v.1.15,2013-08-15 12:25:00,
2013-08-15 05:35:00,63.0,60.6,29.91,West,264,0.0,0.0,92,0.00,,,0.00,Wunderground v.1.15,2013-08-15 12:35:00,
2013-08-15 05:45:00,62.9,60.5,29.91,West,264,0.0,0.0,92,0.00,,,0.00,Wunderground v.1.15,2013-08-15 12:45:00,
2013-08-15 05:55:00,62.8,60.4,29.91,West,264,0.0,0.0,92,0.00,,,0.00,Wunderground v.1.15,2013-08-15 12:55:00,
2013-08-15 06:00:00,62.7,60.3,29.91,West,264,0.0,0.0,92,0.00,,,0.00,Wunderground v.1.15,2013-08-15 13:00:00,
2013-08-15 06:05:00,62.7,60.6,29.90,West,264,0.0,0.0,93,0.00,,,0.00,Wunderground v.1.15,2013-08-15 13:05:00,
2013-08-15 06:15:00,62.9,60.8,29.91,West,264,0.0,0.0,93,0.00,,,0.00,Wunderground v.1.15,2013-08-15 13:15:00,
2013-08-15 06:25:00,63.0,60.9,29.91,West,264,0.0,0.0,93,0.00,,,0.00,Wunderground v.1.15,2013-08-15 13:25:00,
2013-08-15 06:35:00,63.1,61.0,29.91,West,264,0.0,1.0,93,0.00,,,0.00,Wunderground v.1.15,2013-08-15 13:35:00,
2013-08-15 06:45:00,63.3,61.2,29.91,West,264,0.0,1.0,93,0.00,,,0.00,Wunderground v.1.15,2013-08-15 13:45:00,
2013-08-15 06:50:00,63.4,61.3,29.91,West,264,0.0,1.0,93,0.00,,,0.00,Wunderground v.1.15,2013-08-15 13:50:00,
2013-08-15 06:55:00,63.5,61.4,29.91,West,264,0.0,1.0,93,0.00,,,0.00,Wunderground v.1.15,2013-08-15 13:55:00,
2013-08-15 07:05:00,63.6,61.2,29.91,West,264,0.0,0.0,92,0.00,,,0.00,Wunderground v.1.15,2013-08-15 14:05:00,
2013-08-15 07:15:00,63.6,61.5,29.91,West,264,0.0,0.0,93,0.00,,,0.00,Wunderground v.1.15,2013-08-15 14:15:00,
2013-08-15 07:25:00,63.8,61.4,29.92,West,264,0.0,0.0,92,0.00,,,0.00,Wunderground v.1.15,2013-08-15 14:25:00,
2013-08-15 07:35:00,63.8,61.4,29.92,West,264,0.0,0.0,92,0.00,,,0.00,Wunderground v.1.15,2013-08-15 14:35:00,
2013-08-15 07:45:00,64.0,61.6,29.92,West,264,0.0,0.0,92,0.00,,,0.00,Wunderground v.1.15,2013-08-15 14:45:00,
2013-08-15 07:55:00,64.7,62.0,29.92,WNW,300,0.0,0.0,91,0.00,,,0.00,Wunderground v.1.15,2013-08-15 14:55:00,
2013-08-15 08:05:00,65.1,62.1,29.92,NW,314,0.0,0.0,90,0.00,,,0.00,Wunderground v.1.15,2013-08-15 15:05:00,
2013-08-15 08:15:00,66.0,62.3,29.92,West,272,0.0,0.0,88,0.00,,,0.00,Wunderground v.1.15,2013-08-15 15:15:00,
2013-08-15 08:25:00,66.6,62.9,29.92,WNW,291,0.0,0.0,88,0.00,,,0.00,Wunderground v.1.15,2013-08-15 15:25:00,
2013-08-15 08:35:00,66.8,62.1,29.92,SSW,202,0.0,0.0,85,0.00,,,0.00,Wunderground v.1.15,2013-08-15 15:35:00,
2013-08-15 08:45:00,66.6,62.3,29.92,SSW,201,0.0,0.0,86,0.00,,,0.00,Wunderground v.1.15,2013-08-15 15:45:00,
2013-08-15 08:50:00,66.5,62.2,29.93,SSW,201,0.0,0.0,86,0.00,,,0.00,Wunderground v.1.15,2013-08-15 15:50:00,
2013-08-15 08:55:00,66.5,62.2,29.93,SSW,201,0.0,0.0,86,0.00,,,0.00,Wunderground v.1.15,2013-08-15 15:55:00,
2013-08-15 09:05:00,66.3,62.0,29.93,SSW,199,0.0,0.0,86,0.00,,,0.00,Wunderground v.1.15,2013-08-15 16:05:00,
2013-08-15 09:15:00,66.2,62.2,29.93,SSW,199,0.0,0.0,87,0.00,,,0.00,Wunderground v.1.15,2013-08-15 16:15:00,
2013-08-15 09:25:00,66.1,62.1,29.93,West,265,0.0,0.0,87,0.00,,,0.00,Wunderground v.1.15,2013-08-15 16:25:00,
2013-08-15 09:35:00,66.0,62.3,29.93,West,262,0.0,1.0,88,0.00,,,0.00,Wunderground v.1.15,2013-08-15 16:35:00,
2013-08-15 09:45:00,65.8,62.8,29.93,SSW,194,0.0,1.0,90,0.00,,,0.01,Wunderground v.1.15,2013-08-15 16:45:00,
2013-08-15 09:55:00,65.7,63.0,29.93,SSW,212,0.0,1.0,91,0.00,,,0.01,Wunderground v.1.15,2013-08-15 16:55:00,
2013-08-15 10:05:00,65.8,63.7,29.93,SW,226,0.0,0.0,93,0.00,,,0.01,Wunderground v.1.15,2013-08-15 17:05:00,
2013-08-15 10:15:00,66.6,64.2,29.93,WSW,249,0.0,0.0,92,0.00,,,0.01,Wunderground v.1.15,2013-08-15 17:15:00,
2013-08-15 10:25:00,66.8,63.8,29.93,WSW,249,0.0,0.0,90,0.00,,,0.01,Wunderground v.1.15,2013-08-15 17:25:00,
2013-08-15 10:35:00,66.7,63.7,29.94,South,191,0.0,1.0,90,0.00,,,0.01,Wunderground v.1.15,2013-08-15 17:35:00,
2013-08-15 10:40:00,66.5,63.5,29.94,NW,316,0.0,1.0,90,0.00,,,0.01,Wunderground v.1.15,2013-08-15 17:40:00,
2013-08-15 10:45:00,66.4,63.4,29.94,SSW,195,0.0,1.0,90,0.00,,,0.01,Wunderground v.1.15,2013-08-15 17:45:00,
2013-08-15 10:55:00,65.9,63.2,29.94,NNW,345,0.0,1.0,91,0.00,,,0.01,Wunderground v.1.15,2013-08-15 17:55:00,
2013-08-15 11:05:00,65.6,62.9,29.95,SSW,196,0.0,0.0,91,0.00,,,0.01,Wunderground v.1.15,2013-08-15 18:05:00,
2013-08-15 11:15:00,65.6,63.5,29.95,SSW,196,0.0,0.0,93,0.00,,,0.02,Wunderground v.1.15,2013-08-15 18:15:00,
2013-08-15 11:25:00,65.8,63.4,29.94,SSW,200,0.0,0.0,92,0.00,,,0.02,Wunderground v.1.15,2013-08-15 18:25:00,
2013-08-15 11:35:00,66.1,64.0,29.94,SSW,200,0.0,1.0,93,0.00,,,0.02,Wunderground v.1.15,2013-08-15 18:35:00,
2013-08-15 11:45:00,66.1,64.0,29.94,SSW,200,0.0,1.0,93,0.00,,,0.02,Wunderground v.1.15,2013-08-15 18:45:00,
2013-08-15 11:55:00,66.1,63.7,29.94,SSW,199,0.0,1.0,92,0.00,,,0.02,Wunderground v.1.15,2013-08-15 18:55:00,
2013-08-15 12:05:00,66.5,64.1,29.94,South,185,0.0,0.0,92,0.00,,,0.02,Wunderground v.1.15,2013-08-15 19:05:00,
2013-08-15 12:15:00,66.8,64.1,29.94,SSW,202,0.0,0.0,91,0.00,,,0.02,Wunderground v.1.15,2013-08-15 19:15:00,
2013-08-15 12:35:00,66.7,63.7,29.94,South,180,0.0,1.0,90,0.00,,,0.02,Wunderground v.1.15,2013-08-15 19:35:00,
2013-08-15 12:45:00,66.7,63.7,29.94,SSW,193,0.0,1.0,90,0.00,,,0.02,Wunderground v.1.15,2013-08-15 19:45:00,
2013-08-15 13:05:00,67.9,64.2,29.94,SW,220,0.0,0.0,88,0.00,,,0.02,Wunderground v.1.15,2013-08-15 20:05:00,
2013-08-15 13:15:00,68.5,64.1,29.94,SSE,151,0.0,0.0,86,0.00,,,0.02,Wunderground v.1.15,2013-08-15 20:15:00,
2013-08-15 13:20:00,68.7,64.0,29.94,SSE,149,0.0,0.0,85,0.00,,,0.02,Wunderground v.1.15,2013-08-15 20:20:00,
2013-08-15 13:30:00,69.1,64.4,29.94,SSE,162,0.0,0.0,85,0.00,,,0.02,Wunderground v.1.15,2013-08-15 20:30:00,
2013-08-15 13:35:00,69.4,64.4,29.95,South,175,0.0,1.0,84,0.00,,,0.02,Wunderground v.1.15,2013-08-15 20:35:00,
2013-08-15 13:45:00,68.8,63.8,29.95,SSW,197,0.0,1.0,84,0.00,,,0.02,Wunderground v.1.15,2013-08-15 20:45:00,
2013-08-15 13:55:00,68.7,64.0,29.95,SSE,168,0.0,1.0,85,0.00,,,0.02,Wunderground v.1.15,2013-08-15 20:55:00,
2013-08-15 14:05:00,68.6,63.6,29.95,WSW,237,0.0,1.0,84,0.00,,,0.02,Wunderground v.1.15,2013-08-15 21:05:00,
2013-08-15 14:15:00,68.3,63.3,29.95,WSW,249,0.0,0.0,84,0.00,,,0.02,Wunderground v.1.15,2013-08-15 21:15:00,
2013-08-15 14:20:00,68.3,63.6,29.95,South,189,0.0,0.0,85,0.00,,,0.02,Wunderground v.1.15,2013-08-15 21:20:00,
2013-08-15 14:30:00,68.2,63.5,29.95,SSW,206,0.0,0.0,85,0.00,,,0.02,Wunderground v.1.15,2013-08-15 21:30:00,
2013-08-15 14:35:00,68.2,63.5,29.95,South,175,0.0,2.0,85,0.00,,,0.02,Wunderground v.1.15,2013-08-15 21:35:00,
2013-08-15 14:45:00,68.2,63.5,29.96,SSW,207,0.0,2.0,85,0.00,,,0.02,Wunderground v.1.15,2013-08-15 21:45:00,
2013-08-15 14:55:00,68.2,63.9,29.96,South,175,0.0,2.0,86,0.00,,,0.02,Wunderground v.1.15,2013-08-15 21:55:00,
2013-08-15 15:05:00,68.0,63.7,29.97,South,185,0.0,0.0,86,0.00,,,0.02,Wunderground v.1.15,2013-08-15 22:05:00,
2013-08-15 15:15:00,67.5,63.8,29.96,SSW,192,0.0,0.0,88,0.00,,,0.02,Wunderground v.1.15,2013-08-15 22:15:00,
2013-08-15 15:25:00,67.3,63.9,29.95,SSW,199,0.0,0.0,89,0.00,,,0.03,Wunderground v.1.15,2013-08-15 22:25:00,
2013-08-15 15:35:00,67.4,63.7,29.95,SSE,164,0.0,2.0,88,0.00,,,0.03,Wunderground v.1.15,2013-08-15 22:35:00,
2013-08-15 15:45:00,67.6,64.2,29.95,SSW,212,0.0,2.0,89,0.00,,,0.03,Wunderground v.1.15,2013-08-15 22:45:00,
2013-08-15 15:55:00,67.9,64.5,29.96,South,170,0.0,2.0,89,0.00,,,0.03,Wunderground v.1.15,2013-08-15 22:55:00,
2013-08-15 16:00:00,67.8,64.1,29.97,North,354,0.0,0.0,88,0.00,,,0.03,Wunderground v.1.15,2013-08-15 23:00:00,
2013-08-15 16:10:00,67.4,63.7,29.97,NW,322,0.0,3.0,88,0.00,,,0.03,Wunderground v.1.15,2013-08-15 23:10:00,
2013-08-15 16:15:00,66.8,63.5,29.96,WSW,256,0.0,3.0,89,0.00,,,0.03,Wunderground v.1.15,2013-08-15 23:15:00,
2013-08-15 16:25:00,66.9,63.9,29.95,SW,224,0.0,0.0,90,0.00,,,0.03,Wunderground v.1.15,2013-08-15 23:25:00,
2013-08-15 16:35:00,67.2,64.2,29.95,SSW,210,0.0,2.0,90,0.00,,,0.03,Wunderground v.1.15,2013-08-15 23:35:00,
2013-08-15 16:45:00,67.2,64.2,29.96,SW,231,0.0,2.0,90,0.00,,,0.03,Wunderground v.1.15,2013-08-15 23:45:00,
2013-08-15 16:55:00,67.3,63.9,29.95,WNW,291,0.0,2.0,89,0.00,,,0.03,Wunderground v.1.15,2013-08-15 23:55:00,
2013-08-15 17:00:00,67.4,64.0,29.95,WNW,295,0.0,0.0,89,0.00,,,0.03,Wunderground v.1.15,2013-08-16 00:00:00,
2013-08-15 17:10:00,67.6,64.2,29.96,North,351,0.0,0.0,89,0.00,,,0.03,Wunderground v.1.15,2013-08-16 00:10:00,
2013-08-15 17:15:00,67.6,64.2,29.96,WNW,288,0.0,0.0,89,0.00,,,0.03,Wunderground v.1.15,2013-08-16 00:15:00,
2013-08-15 17:25:00,67.5,64.5,29.96,NW,309,0.0,2.0,90,0.00,,,0.03,Wunderground v.1.15,2013-08-16 00:25:00,
2013-08-15 17:35:00,67.4,64.0,29.95,NW,308,0.0,3.0,89,0.00,,,0.03,Wunderground v.1.15,2013-08-16 00:35:00,
2013-08-15 17:45:00,67.3,63.9,29.95,SE,133,0.0,3.0,89,0.00,,,0.03,Wunderground v.1.15,2013-08-16 00:45:00,
2013-08-15 17:55:00,67.5,64.1,29.94,SE,136,0.0,3.0,89,0.00,,,0.03,Wunderground v.1.15,2013-08-16 00:55:00,
2013-08-15 18:05:00,67.6,64.2,29.95,SE,136,0.0,0.0,89,0.00,,,0.03,Wunderground v.1.15,2013-08-16 01:05:00,
2013-08-15 18:15:00,67.8,64.1,29.95,SE,136,0.0,0.0,88,0.00,,,0.03,Wunderground v.1.15,2013-08-16 01:15:00,
2013-08-15 18:25:00,67.7,63.7,29.94,SE,136,0.0,0.0,87,0.00,,,0.03,Wunderground v.1.15,2013-08-16 01:25:00,
2013-08-15 18:35:00,67.7,63.7,29.94,SE,136,0.0,3.0,87,0.00,,,0.03,Wunderground v.1.15,2013-08-16 01:35:00,
2013-08-15 18:45:00,67.5,63.8,29.94,SE,136,0.0,3.0,88,0.00,,,0.03,Wunderground v.1.15,2013-08-16 01:45:00,
2013-08-15 18:55:00,67.4,64.0,29.94,SE,136,0.0,3.0,89,0.00,,,0.03,Wunderground v.1.15,2013-08-16 01:55:00,
2013-08-15 19:00:00,67.3,63.6,29.94,SE,137,0.0,0.0,88,0.00,,,0.03,Wunderground v.1.15,2013-08-16 02:00:00,
2013-08-15 19:05:00,67.4,63.7,29.94,SE,137,0.0,0.0,88,0.00,,,0.03,Wunderground v.1.15,2013-08-16 02:05:00,
2013-08-15 19:15:00,67.3,63.6,29.94,SE,137,0.0,0.0,88,0.00,,,0.03,Wunderground v.1.15,2013-08-16 02:15:00,
2013-08-15 19:25:00,67.2,63.2,29.94,SE,137,0.0,0.0,87,0.00,,,0.03,Wunderground v.1.15,2013-08-16 02:25:00,
2013-08-15 19:35:00,67.2,63.5,29.94,SE,138,0.0,1.0,88,0.00,,,0.03,Wunderground v.1.15,2013-08-16 02:35:00,
2013-08-15 19:40:00,67.2,63.5,29.94,SE,143,0.0,1.0,88,0.00,,,0.03,Wunderground v.1.15,2013-08-16 02:40:00,
2013-08-15 19:50:00,67.3,63.6,29.94,SSE,160,0.0,1.0,88,0.00,,,0.03,Wunderground v.1.15,2013-08-16 02:50:00,
2013-08-15 19:55:00,67.2,63.5,29.94,SSE,160,0.0,1.0,88,0.00,,,0.03,Wunderground v.1.15,2013-08-16 02:55:00,
2013-08-15 20:05:00,67.1,63.7,29.94,ESE,106,0.0,0.0,89,0.00,,,0.03,Wunderground v.1.15,2013-08-16 03:05:00,
2013-08-15 20:15:00,66.7,63.0,29.95,ESE,106,0.0,0.0,88,0.00,,,0.03,Wunderground v.1.15,2013-08-16 03:15:00,
2013-08-15 20:25:00,66.3,63.0,29.94,ESE,106,0.0,0.0,89,0.00,,,0.03,Wunderground v.1.15,2013-08-16 03:25:00,
2013-08-15 20:35:00,65.9,62.6,29.94,ESE,106,0.0,0.0,89,0.00,,,0.03,Wunderground v.1.15,2013-08-16 03:35:00,
2013-08-15 20:45:00,65.4,62.4,29.95,ESE,106,0.0,0.0,90,0.00,,,0.03,Wunderground v.1.15,2013-08-16 03:45:00,
2013-08-15 20:50:00,65.3,62.3,29.95,ESE,106,0.0,0.0,90,0.00,,,0.03,Wunderground v.1.15,2013-08-16 03:50:00,
2013-08-15 20:55:00,65.2,62.5,29.95,ESE,106,0.0,0.0,91,0.00,,,0.03,Wunderground v.1.15,2013-08-16 03:55:00,
2013-08-15 21:05:00,64.9,62.2,29.95,ESE,106,0.0,0.0,91,0.00,,,0.03,Wunderground v.1.15,2013-08-16 04:05:00,
2013-08-15 21:10:00,64.7,62.0,29.95,ESE,105,0.0,0.0,91,0.00,,,0.03,Wunderground v.1.15,2013-08-16 04:10:00,
2013-08-15 21:15:00,64.6,62.2,29.95,ESE,105,0.0,0.0,92,0.00,,,0.03,Wunderground v.1.15,2013-08-16 04:15:00,
2013-08-15 21:25:00,64.4,62.0,29.96,ESE,105,0.0,0.0,92,0.00,,,0.03,Wunderground v.1.15,2013-08-16 04:25:00,
2013-08-15 21:35:00,64.2,61.8,29.96,ESE,105,0.0,0.0,92,0.00,,,0.03,Wunderground v.1.15,2013-08-16 04:35:00,
2013-08-15 21:45:00,63.9,61.5,29.96,ESE,105,0.0,0.0,92,0.00,,,0.03,Wunderground v.1.15,2013-08-16 04:45:00,
2013-08-15 21:55:00,63.6,61.2,29.97,ESE,105,0.0,0.0,92,0.00,,,0.03,Wunderground v.1.15,2013-08-16 04:55:00,
2013-08-15 22:00:00,63.5,61.1,29.97,ESE,105,0.0,0.0,92,0.00,,,0.03,Wunderground v.1.15,2013-08-16 05:00:00,
2013-08-15 22:05:00,63.4,61.3,29.97,ESE,105,0.0,0.0,93,0.00,,,0.03,Wunderground v.1.15,2013-08-16 05:05:00,
2013-08-15 22:15:00,63.0,60.6,29.97,ESE,105,0.0,0.0,92,0.00,,,0.03,Wunderground v.1.15,2013-08-16 05:15:00,
2013-08-15 22:25:00,62.6,60.2,29.97,ESE,105,0.0,0.0,92,0.00,,,0.03,Wunderground v.1.15,2013-08-16 05:25:00,
2013-08-15 22:35:00,62.3,59.9,29.97,ESE,105,0.0,1.0,92,0.00,,,0.03,Wunderground v.1.15,2013-08-16 05:35:00,
2013-08-15 22:40:00,62.2,60.2,29.97,ESE,105,0.0,1.0,93,0.00,,,0.03,Wunderground v.1.15,2013-08-16 05:40:00,
2013-08-15 22:45:00,62.0,60.0,29.97,ESE,105,0.0,1.0,93,0.00,,,0.03,Wunderground v.1.15,2013-08-16 05:45:00,
2013-08-15 22:55:00,61.8,59.8,29.97,ESE,105,0.0,1.0,93,0.00,,,0.03,Wunderground v.1.15,2013-08-16 05:55:00,
2013-08-15 23:05:00,61.6,59.6,29.97,ESE,105,0.0,0.0,93,0.00,,,0.03,Wunderground v.1.15,2013-08-16 06:05:00,
2013-08-15 23:15:00,61.4,59.7,29.96,ESE,105,0.0,0.0,94,0.00,,,0.03,Wunderground v.1.15,2013-08-16 06:15:00,
2013-08-15 23:25:00,61.3,59.6,29.96,ESE,105,0.0,0.0,94,0.00,,,0.03,Wunderground v.1.15,2013-08-16 06:25:00,
2013-08-15 23:35:00,61.0,59.3,29.96,ESE,105,0.0,0.0,94,0.00,,,0.03,Wunderground v.1.15,2013-08-16 06:35:00,
2013-08-15 23:45:00,60.8,59.1,29.96,ESE,105,0.0,0.0,94,0.00,,,0.03,Wunderground v.1.15,2013-08-16 06:45:00,
2013-08-15 23:55:00,60.7,59.0,29.96,ESE,105,0.0,0.0,94,0.00,,,0.03,Wunderground v.1.15,2013-08-16 06:55:00,